Time;durP1;ratioP1;P1;durP2;ratioP2;P2;SDS_P1;SDS_P2;PMS_P1;PMS_P2;Temp;Humidity;BMP_temperature;BMP_pressure;BME280_temperature;BME280_humidity;BME280_pressure;Samples;Min_cycle;Max_cycle;Signal;HPM_P1;HPM_P2
2022/05/12 00:00:16;;;;;;;16.15;10.45;;;19.00;99.90;;;;;;5072537;28;20056;-73
2022/05/12 00:02:44;;;;;;;14.80;9.40;;;18.90;99.90;;;;;;5051766;28;20052;-72
2022/05/12 00:05:13;;;;;;;16.92;9.68;;;19.00;99.90;;;;;;5052741;28;20113;-73
2022/05/12 00:07:43;;;;;;;12.90;9.52;;;19.00;99.90;;;;;;5065575;28;20044;-73
2022/05/12 00:10:13;;;;;;;13.63;10.13;;;19.00;99.90;;;;;;5055248;28;20367;-73
2022/05/12 00:12:41;;;;;;;17.33;11.70;;;19.10;99.90;;;;;;5035571;28;20056;-73
2022/05/12 00:15:13;;;;;;;14.70;9.93;;;19.10;99.90;;;;;;5052780;28;20044;-72
2022/05/12 00:17:44;;;;;;;21.00;11.32;;;19.10;99.90;;;;;;5034772;28;20056;-74
2022/05/12 00:20:13;;;;;;;14.82;10.77;;;19.20;99.90;;;;;;5051960;28;20045;-71
2022/05/12 00:22:41;;;;;;;19.67;10.52;;;19.20;99.90;;;;;;5069624;28;20045;-72
2022/05/12 00:25:14;;;;;;;15.77;10.60;;;19.20;99.90;;;;;;5035095;28;20084;-71
2022/05/12 00:27:42;;;;;;;14.30;10.32;;;19.30;99.90;;;;;;5051358;28;20045;-71
2022/05/12 00:30:11;;;;;;;17.73;11.23;;;19.30;99.90;;;;;;5070398;28;20044;-71
2022/05/12 00:32:42;;;;;;;15.82;11.52;;;19.30;99.90;;;;;;5045178;28;20060;-71
2022/05/12 00:35:12;;;;;;;15.88;11.05;;;19.30;99.90;;;;;;5070185;28;20089;-71
2022/05/12 00:37:39;;;;;;;16.63;10.20;;;19.30;99.90;;;;;;5064571;28;20062;-71
2022/05/12 00:40:07;;;;;;;18.17;11.70;;;19.30;99.90;;;;;;5055106;28;20581;-71
2022/05/12 00:42:36;;;;;;;18.20;10.85;;;19.30;99.90;;;;;;5090138;28;20048;-71
2022/05/12 00:45:04;;;;;;;18.40;11.68;;;19.30;99.90;;;;;;5073033;28;20047;-73
2022/05/12 00:47:31;;;;;;;15.48;11.40;;;19.30;99.90;;;;;;5054351;28;20436;-73
2022/05/12 00:49:59;;;;;;;19.27;11.88;;;19.30;99.90;;;;;;5036082;28;20179;-74
2022/05/12 00:52:29;;;;;;;17.33;10.50;;;19.30;99.90;;;;;;5053891;28;20105;-73
2022/05/12 00:55:05;;;;;;;18.48;10.70;;;19.30;99.90;;;;;;5035684;28;20052;-74
2022/05/12 00:57:38;;;;;;;;;;;19.30;99.90;;;;;;5052552;28;20052;-74
2022/05/12 01:00:08;;;;;;;16.02;10.90;;;19.20;99.90;;;;;;5070225;28;19924;-75
2022/05/12 01:02:36;;;;;;;16.23;10.68;;;19.00;99.90;;;;;;5035644;28;20083;-74
2022/05/12 01:05:05;;;;;;;14.10;9.98;;;19.00;99.90;;;;;;5069114;28;20044;-73
2022/05/12 01:07:33;;;;;;;15.10;11.88;;;18.90;99.90;;;;;;5050566;28;20477;-73
2022/05/12 01:10:03;;;;;;;17.45;12.32;;;18.90;99.90;;;;;;5068878;28;20041;-74
2022/05/12 01:12:31;;;;;;;16.65;10.80;;;18.80;99.90;;;;;;5034116;28;20131;-73
2022/05/12 01:14:59;;;;;;;17.48;12.88;;;18.70;99.90;;;;;;5062518;28;20055;-74
2022/05/12 01:17:26;;;;;;;14.57;10.63;;;18.70;99.90;;;;;;5034856;28;20044;-74
2022/05/12 01:19:54;;;;;;;15.18;10.20;;;18.70;99.90;;;;;;5051522;28;20087;-73
2022/05/12 01:22:58;;;;;;;16.23;10.85;;;18.70;99.90;;;;;;5069451;28;20059;-74
2022/05/12 01:25:28;;;;;;;14.45;10.60;;;18.70;99.90;;;;;;5039602;28;20135;-73
2022/05/12 01:27:56;;;;;;;14.10;10.18;;;18.70;99.90;;;;;;5051231;28;20048;-74
2022/05/12 01:30:25;;;;;;;14.93;9.85;;;18.70;99.90;;;;;;5050950;28;20043;-74
2022/05/12 01:32:53;;;;;;;15.10;10.13;;;18.80;99.90;;;;;;5023179;28;20103;-73
2022/05/12 01:35:24;;;;;;;15.63;9.95;;;18.80;99.90;;;;;;5047382;28;20118;-75
2022/05/12 01:37:52;;;;;;;18.63;10.10;;;18.70;99.90;;;;;;5047814;28;20522;-73
2022/05/12 01:40:22;;;;;;;13.95;9.30;;;18.70;99.90;;;;;;5047431;28;20048;-74
2022/05/12 01:42:50;;;;;;;19.05;11.25;;;18.50;99.90;;;;;;5047249;28;20077;-73
2022/05/12 01:45:19;;;;;;;19.70;10.57;;;18.50;99.90;;;;;;5017422;28;20051;-73
2022/05/12 01:47:47;;;;;;;16.95;11.07;;;18.50;99.90;;;;;;5050511;28;20052;-73
2022/05/12 01:50:15;;;;;;;18.73;12.10;;;18.40;99.90;;;;;;5068582;28;20111;-74
2022/05/12 01:52:44;;;;;;;16.00;10.77;;;18.40;99.90;;;;;;5050579;28;20052;-74
2022/05/12 01:55:16;;;;;;;16.70;11.63;;;18.40;99.90;;;;;;5050694;28;20076;-74
2022/05/12 01:57:44;;;;;;;18.13;11.23;;;18.40;99.90;;;;;;5066619;28;20056;-74
2022/05/12 02:00:16;;;;;;;15.32;9.25;;;18.40;99.90;;;;;;5034508;28;20486;-73
2022/05/12 02:02:44;;;;;;;18.17;9.70;;;18.50;99.90;;;;;;5003747;28;1324437;-74
2022/05/12 02:05:12;;;;;;;19.23;9.70;;;18.50;99.90;;;;;;5051587;28;20060;-74
2022/05/12 02:07:43;;;;;;;16.08;11.02;;;18.50;99.90;;;;;;5051283;28;20516;-74
2022/05/12 02:10:14;;;;;;;16.48;9.35;;;18.60;99.90;;;;;;5055763;28;20474;-74
2022/05/12 02:12:42;;;;;;;18.13;9.93;;;18.60;99.90;;;;;;5073275;28;20055;-74
2022/05/12 02:15:10;;;;;;;15.30;9.43;;;18.60;99.90;;;;;;5038602;28;20048;-73
2022/05/12 02:17:39;;;;;;;13.00;9.07;;;18.60;99.90;;;;;;5038959;28;20048;-73
2022/05/12 02:20:07;;;;;;;15.18;9.70;;;18.60;99.90;;;;;;5038784;28;20151;-72
2022/05/12 02:22:34;;;;;;;16.23;9.07;;;18.60;99.90;;;;;;5038465;28;20394;-71
2022/05/12 02:25:02;;;;;;;13.48;9.15;;;18.60;99.90;;;;;;5055279;28;20044;-71
2022/05/12 02:27:30;;;;;;;13.07;8.50;;;18.70;99.90;;;;;;5072216;28;20479;-71
2022/05/12 02:29:58;;;;;;;14.60;9.00;;;18.70;99.90;;;;;;5055491;28;20390;-71
2022/05/12 02:32:28;;;;;;;10.18;8.35;;;18.70;99.90;;;;;;5022071;28;20140;-71
2022/05/12 02:34:56;;;;;;;13.13;8.45;;;18.70;99.90;;;;;;5037878;28;20044;-71
2022/05/12 02:37:24;;;;;;;12.80;9.70;;;18.60;99.90;;;;;;5055140;28;20048;-71
2022/05/12 02:39:51;;;;;;;12.60;9.02;;;18.60;99.90;;;;;;5053982;28;20171;-75
2022/05/12 02:42:19;;;;;;;12.75;8.68;;;18.50;99.90;;;;;;5072807;28;20048;-73
2022/05/12 02:44:46;;;;;;;17.95;9.63;;;18.50;99.90;;;;;;5021782;28;20113;-73
2022/05/12 02:47:15;;;;;;;16.17;9.15;;;18.50;99.90;;;;;;5054523;28;20033;-74
2022/05/12 02:49:42;;;;;;;16.83;9.55;;;18.50;99.90;;;;;;5072026;28;20044;-74
2022/05/12 02:52:09;;;;;;;14.45;7.53;;;18.60;99.90;;;;;;5054665;28;20044;-74
2022/05/12 02:54:37;;;;;;;11.35;7.80;;;18.60;99.90;;;;;;5072487;28;20045;-74
2022/05/12 02:57:05;;;;;;;12.63;8.35;;;18.60;99.90;;;;;;5034404;28;20053;-74
2022/05/12 02:59:33;;;;;;;12.30;7.60;;;18.60;99.80;;;;;;5049614;28;20048;-74
2022/05/12 03:02:00;;;;;;;10.88;6.43;;;18.60;99.70;;;;;;5064343;28;20040;-74
2022/05/12 03:04:28;;;;;;;10.55;7.05;;;18.60;99.60;;;;;;5074133;28;20134;-74
2022/05/12 03:06:55;;;;;;;13.05;7.20;;;18.60;99.60;;;;;;5057381;28;20066;-75
2022/05/12 03:09:23;;;;;;;11.50;7.60;;;18.60;99.50;;;;;;5057449;28;20032;-73
2022/05/12 03:11:50;;;;;;;9.65;7.18;;;18.50;99.50;;;;;;5040995;28;20044;-74
2022/05/12 03:14:18;;;;;;;9.95;6.93;;;18.50;99.60;;;;;;5057882;28;20056;-74
2022/05/12 03:16:46;;;;;;;10.15;6.90;;;18.50;99.60;;;;;;5074134;28;20149;-74
2022/05/12 03:19:14;;;;;;;9.23;7.10;;;18.50;99.50;;;;;;5073440;28;20517;-73
2022/05/12 03:21:41;;;;;;;9.68;6.00;;;18.40;99.40;;;;;;5057268;28;20040;-74
2022/05/12 03:24:09;;;;;;;8.77;6.20;;;18.40;99.20;;;;;;5073879;28;20040;-74
2022/05/12 03:26:36;;;;;;;9.27;6.82;;;18.40;99.00;;;;;;5073992;28;20046;-74
2022/05/12 03:29:04;;;;;;;11.25;8.55;;;18.40;98.90;;;;;;5074031;28;20043;-73
2022/05/12 03:31:31;;;;;;;14.13;11.45;;;18.40;98.80;;;;;;5056449;28;20056;-74
2022/05/12 03:34:00;;;;;;;17.23;12.05;;;18.40;98.80;;;;;;5073781;28;20051;-74
2022/05/12 03:36:28;;;;;;;16.52;11.93;;;18.30;98.80;;;;;;5054957;28;20039;-74
2022/05/12 03:38:55;;;;;;;11.95;10.43;;;18.30;98.80;;;;;;5056850;28;20139;-74
2022/05/12 03:41:23;;;;;;;14.00;7.93;;;18.30;98.80;;;;;;5056460;28;20052;-74
2022/05/12 03:46:36;;;;;;;10.07;6.53;;;18.30;98.70;;;;;;5073776;28;20044;-74
2022/05/12 03:49:03;;;;;;;10.70;5.78;;;18.40;98.60;;;;;;5074248;28;20047;-76
2022/05/12 03:51:31;;;;;;;8.20;5.38;;;18.30;98.30;;;;;;5057465;28;20063;-73
2022/05/12 03:53:59;;;;;;;5.85;4.57;;;18.30;98.10;;;;;;5057415;28;20056;-73
2022/05/12 03:56:26;;;;;;;19.33;5.60;;;18.40;97.80;;;;;;5073899;28;20105;-74
2022/05/12 03:58:56;;;;;;;6.63;4.95;;;18.40;97.60;;;;;;5073400;28;20140;-74
2022/05/12 04:01:23;;;;;;;9.63;5.88;;;18.40;97.50;;;;;;5091362;28;20048;-74
2022/05/12 04:03:51;;;;;;;11.27;6.10;;;18.50;97.40;;;;;;5073736;28;20104;-74
2022/05/12 04:06:19;;;;;;;7.18;4.47;;;18.50;97.30;;;;;;5074112;28;20375;-74
2022/05/12 04:08:46;;;;;;;10.20;4.65;;;18.50;97.20;;;;;;5056419;28;20448;-74
2022/05/12 04:11:14;;;;;;;7.80;5.28;;;18.60;97.20;;;;;;5073260;28;20405;-74
2022/05/12 04:13:43;;;;;;;8.77;5.15;;;18.70;97.20;;;;;;5073210;28;20512;-74
2022/05/12 04:16:10;;;;;;;8.43;4.65;;;18.70;97.20;;;;;;5073891;28;20048;-74
2022/05/12 04:18:38;;;;;;;11.10;5.38;;;18.80;97.00;;;;;;5073235;28;20039;-73
2022/05/12 04:21:05;;;;;;;8.23;5.18;;;18.80;96.90;;;;;;5073343;28;20466;-75
2022/05/12 04:23:33;;;;;;;10.73;5.57;;;18.90;96.90;;;;;;5056681;28;20055;-74
2022/05/12 04:26:01;;;;;;;7.93;4.53;;;19.00;96.70;;;;;;5056542;28;20490;-74
2022/05/12 04:28:30;;;;;;;10.48;5.40;;;19.20;96.60;;;;;;5056378;28;20548;-74
2022/05/12 04:30:58;;;;;;;7.22;4.80;;;19.20;96.70;;;;;;5056145;28;20055;-74
2022/05/12 04:36:11;;;;;;;8.20;4.40;;;19.50;96.20;;;;;;5052141;28;20047;-74
2022/05/12 04:38:39;;;;;;;6.35;4.60;;;19.60;95.90;;;;;;5053217;28;20056;-74
2022/05/12 04:41:08;;;;;;;6.93;4.60;;;19.80;95.70;;;;;;5052269;28;20132;-74
2022/05/12 04:43:36;;;;;;;5.53;4.00;;;19.90;95.40;;;;;;5035660;28;20043;-74
2022/05/12 04:46:03;;;;;;;5.45;4.18;;;20.10;94.80;;;;;;5035263;28;20056;-74
2022/05/12 04:48:31;;;;;;;7.25;4.40;;;20.30;94.40;;;;;;5080135;28;20147;-72
2022/05/12 04:50:59;;;;;;;9.65;4.45;;;20.40;93.90;;;;;;5071163;28;20540;-72
2022/05/12 04:53:27;;;;;;;6.68;3.97;;;20.60;93.60;;;;;;5052885;28;20041;-71
2022/05/12 04:55:55;;;;;;;6.68;4.45;;;20.70;93.60;;;;;;5067986;28;20048;-71
2022/05/12 04:58:23;;;;;;;7.53;4.18;;;20.80;93.50;;;;;;5067770;28;20460;-72
2022/05/12 05:00:51;;;;;;;8.07;4.60;;;21.00;93.40;;;;;;5078636;28;20051;-71
2022/05/12 05:03:19;;;;;;;8.45;4.45;;;21.10;93.30;;;;;;5089817;28;20060;-72
2022/05/12 05:05:48;;;;;;;12.40;5.63;;;21.30;93.20;;;;;;5053043;28;20045;-73
2022/05/12 05:08:19;;;;;;;8.88;5.03;;;21.40;93.20;;;;;;5035204;28;20143;-72
2022/05/12 05:10:48;;;;;;;13.75;6.43;;;21.50;93.20;;;;;;5055754;28;20517;-70
2022/05/12 05:13:18;;;;;;;15.30;6.18;;;21.60;93.50;;;;;;5090365;28;20043;-74
2022/05/12 05:15:48;;;;;;;12.00;5.97;;;21.80;93.30;;;;;;5056455;28;20048;-71
2022/05/12 05:18:18;;;;;;;24.00;8.20;;;21.90;93.00;;;;;;5072490;28;20075;-70
2022/05/12 05:20:46;;;;;;;12.32;6.20;;;22.00;92.90;;;;;;5055784;28;20517;-72
2022/05/12 05:23:21;;;;;;;13.25;6.20;;;22.20;92.50;;;;;;5048952;28;20102;-71
2022/05/12 05:25:49;;;;;;;9.85;5.78;;;22.30;92.40;;;;;;5071879;28;20043;-72
2022/05/12 05:28:18;;;;;;;10.27;5.70;;;22.40;92.30;;;;;;5090102;28;20048;-71
2022/05/12 05:30:46;;;;;;;11.23;6.25;;;22.50;92.20;;;;;;5072361;28;20063;-71
2022/05/12 05:33:13;;;;;;;10.90;5.88;;;22.70;92.10;;;;;;5071749;28;20055;-71
2022/05/12 05:35:41;;;;;;;13.68;5.80;;;22.80;92.00;;;;;;5055187;28;20118;-71
2022/05/12 05:38:10;;;;;;;9.43;5.95;;;22.90;91.80;;;;;;5038866;28;20082;-71
2022/05/12 05:40:39;;;;;;;9.98;7.28;;;23.10;91.90;;;;;;5072291;28;20501;-71
2022/05/12 05:43:09;;;;;;;9.73;5.85;;;23.20;91.80;;;;;;5072013;28;20056;-71
2022/05/12 05:45:36;;;;;;;12.57;7.22;;;23.30;91.80;;;;;;5072157;28;20051;-71
2022/05/12 05:48:06;;;;;;;11.57;8.10;;;23.40;91.60;;;;;;5054675;28;20044;-71
2022/05/12 05:53:25;;;;;;;14.35;9.43;;;23.60;91.30;;;;;;5071905;28;20444;-71
2022/05/12 05:55:58;;;;;;;13.80;8.30;;;23.80;91.30;;;;;;5054721;28;20055;-72
2022/05/12 05:58:28;;;;;;;14.55;8.15;;;23.90;91.20;;;;;;5071885;28;20051;-72
2022/05/12 06:00:56;;;;;;;20.00;8.68;;;24.00;90.80;;;;;;5054951;28;20146;-72
2022/05/12 06:03:25;;;;;;;11.05;7.93;;;24.10;90.70;;;;;;5054837;28;20121;-72
2022/05/12 06:05:55;;;;;;;14.75;7.75;;;24.10;90.50;;;;;;5039162;28;20076;-73
2022/05/12 06:08:23;;;;;;;18.15;9.60;;;24.30;90.20;;;;;;5038237;28;20055;-72
2022/05/12 06:10:58;;;;;;;15.68;9.55;;;24.30;90.00;;;;;;5072911;28;20491;-72
2022/05/12 06:13:25;;;;;;;13.60;7.70;;;24.50;89.70;;;;;;5089621;28;20076;-72
2022/05/12 06:15:53;;;;;;;15.00;8.93;;;24.50;89.50;;;;;;5072193;28;20032;-72
2022/05/12 06:18:21;;;;;;;15.75;8.10;;;24.60;89.40;;;;;;5038829;28;20055;-72
2022/05/12 06:20:50;;;;;;;15.50;8.07;;;24.70;89.50;;;;;;5072209;28;20032;-72
2022/05/12 06:23:18;;;;;;;12.02;6.88;;;24.80;89.70;;;;;;5069950;28;20114;-73
2022/05/12 06:25:46;;;;;;;14.27;6.85;;;24.90;89.60;;;;;;5071091;28;20079;-72
2022/05/12 06:28:13;;;;;;;14.52;7.30;;;25.00;89.40;;;;;;5071925;28;20044;-73
2022/05/12 06:30:41;;;;;;;18.25;7.05;;;25.10;89.30;;;;;;5071791;28;20048;-72
2022/05/12 06:33:18;;;;;;;15.40;9.15;;;25.20;89.20;;;;;;5071524;28;20048;-73
2022/05/12 06:35:47;;;;;;;17.42;7.68;;;25.30;89.00;;;;;;5054986;28;20398;-71
2022/05/12 06:38:15;;;;;;;10.60;6.13;;;25.40;89.00;;;;;;5054882;28;20044;-72
2022/05/12 06:40:43;;;;;;;10.57;5.55;;;25.50;88.80;;;;;;5071805;28;20036;-72
2022/05/12 06:43:11;;;;;;;8.35;5.63;;;25.50;88.30;;;;;;5071614;28;20047;-73
2022/05/12 06:45:40;;;;;;;12.82;6.22;;;25.60;88.50;;;;;;5054644;28;20064;-73
2022/05/12 06:48:09;;;;;;;8.32;4.93;;;25.70;88.00;;;;;;5070946;28;20125;-72
2022/05/12 06:50:37;;;;;;;8.80;4.88;;;25.80;86.80;;;;;;5054346;28;20074;-72
2022/05/12 06:53:05;;;;;;;9.52;4.65;;;25.90;86.10;;;;;;5054251;28;20074;-72
2022/05/12 06:55:33;;;;;;;8.02;3.85;;;25.90;85.80;;;;;;5041407;28;20054;-73
2022/05/12 06:58:00;;;;;;;6.75;4.13;;;25.90;85.50;;;;;;5075179;28;20050;-74
2022/05/12 07:00:28;;;;;;;11.90;4.90;;;25.90;85.30;;;;;;5058135;28;20055;-72
2022/05/12 07:02:56;;;;;;;8.30;4.43;;;25.90;85.10;;;;;;5057893;28;20059;-72
2022/05/12 07:05:25;;;;;;;11.05;5.05;;;26.00;85.10;;;;;;5057631;28;20055;-72
2022/05/12 07:07:54;;;;;;;10.02;4.60;;;26.10;84.90;;;;;;5084648;28;20039;-72
2022/05/12 07:10:24;;;;;;;9.60;3.90;;;26.20;85.00;;;;;;5058403;28;20143;-72
2022/05/12 07:12:53;;;;;;;9.30;4.70;;;26.30;84.80;;;;;;5057823;28;20067;-72
2022/05/12 07:15:25;;;;;;;7.18;4.82;;;26.50;84.50;;;;;;5074586;28;20567;-72
2022/05/12 07:17:54;;;;;;;9.18;4.00;;;26.50;83.30;;;;;;5057650;28;20047;-72
2022/05/12 07:28:42;;;;;;;12.00;4.70;;;26.70;83.50;;;;;;5054470;28;20047;-72
2022/05/12 07:31:10;;;;;;;5.18;4.05;;;26.90;83.60;;;;;;5054249;28;20060;-72
2022/05/12 07:33:41;;;;;;;11.55;4.30;;;27.00;83.30;;;;;;5037463;28;20049;-72
2022/05/12 07:36:14;;;;;;;8.00;4.40;;;27.10;83.00;;;;;;5054228;28;21032;-72
2022/05/12 07:38:42;;;;;;;7.57;4.25;;;27.20;82.90;;;;;;5053828;28;20629;-72
2022/05/12 07:41:12;;;;;;;7.25;3.85;;;27.30;82.70;;;;;;5053161;28;20048;-73
2022/05/12 07:43:41;;;;;;;9.55;4.07;;;27.30;82.50;;;;;;5054118;28;20048;-72
2022/05/12 07:46:11;;;;;;;8.95;4.28;;;27.40;82.00;;;;;;5053785;28;20052;-72
2022/05/12 07:48:39;;;;;;;7.97;4.45;;;27.50;81.90;;;;;;5053862;28;20486;-73
2022/05/12 07:51:07;;;;;;;7.40;4.18;;;27.50;80.40;;;;;;5036793;28;20124;-72
2022/05/12 07:53:37;;;;;;;8.23;3.67;;;27.60;80.20;;;;;;5036893;28;20173;-72
2022/05/12 07:56:06;;;;;;;5.72;3.72;;;27.40;80.20;;;;;;5054278;28;20044;-72
2022/05/12 07:58:34;;;;;;;5.63;3.88;;;27.30;80.20;;;;;;5054486;28;20044;-72
2022/05/12 08:01:02;;;;;;;6.63;4.28;;;27.20;80.10;;;;;;5037229;28;20102;-72
2022/05/12 08:03:29;;;;;;;15.13;4.80;;;27.20;80.30;;;;;;5054105;28;20067;-72
2022/05/12 08:05:59;;;;;;;6.45;4.10;;;27.20;82.00;;;;;;5019830;28;20054;-72
2022/05/12 08:08:28;;;;;;;8.63;4.05;;;27.40;81.10;;;;;;5021037;28;20045;-72
2022/05/12 08:10:56;;;;;;;8.55;3.85;;;27.50;79.00;;;;;;5037588;28;20051;-72
2022/05/12 08:13:25;;;;;;;12.60;3.90;;;27.60;79.00;;;;;;5053228;28;20459;-72
2022/05/12 08:15:53;;;;;;;9.27;3.55;;;27.60;79.20;;;;;;5053944;28;20075;-74
2022/05/12 08:18:23;;;;;;;8.07;3.72;;;27.60;78.00;;;;;;5040566;28;20055;-72
2022/05/12 08:20:52;;;;;;;8.48;3.55;;;27.50;76.20;;;;;;5057221;28;20439;-72
2022/05/12 08:23:20;;;;;;;4.78;2.67;;;27.50;75.80;;;;;;5073938;28;20036;-74
2022/05/12 08:25:50;;;;;;;6.18;2.50;;;27.60;74.60;;;;;;5057333;28;20056;-73
2022/05/12 08:28:22;;;;;;;4.88;2.80;;;27.50;73.60;;;;;;5056860;28;20048;-72
2022/05/12 08:30:50;;;;;;;6.95;3.10;;;27.50;74.20;;;;;;5057337;28;20047;-72
2022/05/12 08:33:19;;;;;;;7.88;3.47;;;27.40;75.70;;;;;;5073912;28;20135;-72
2022/05/12 08:35:47;;;;;;;9.75;2.92;;;27.40;75.40;;;;;;5040308;28;20600;-72
2022/05/12 08:38:17;;;;;;;4.47;3.10;;;27.40;74.60;;;;;;5040423;28;20070;-72
2022/05/12 08:40:44;;;;;;;8.30;4.35;;;27.40;74.60;;;;;;5073443;28;20048;-72
2022/05/12 08:43:18;;;;;;;8.80;3.50;;;27.40;74.50;;;;;;5073228;28;20401;-72
2022/05/12 08:45:47;;;;;;;7.38;3.65;;;27.50;74.70;;;;;;5057058;28;20078;-72
2022/05/12 08:48:15;;;;;;;5.75;3.55;;;27.70;74.80;;;;;;5056643;28;20048;-70
2022/05/12 08:50:53;;;;;;;9.23;3.42;;;27.80;75.00;;;;;;5057019;28;20059;-70
2022/05/12 08:53:25;;;;;;;5.93;3.00;;;27.90;75.10;;;;;;5073204;28;20187;-70
2022/05/12 08:55:57;;;;;;;6.38;3.10;;;27.80;76.60;;;;;;5056195;28;20062;-71
2022/05/12 08:58:30;;;;;;;7.88;4.15;;;27.20;77.20;;;;;;5073161;28;20040;-70
2022/05/12 09:01:16;;;;;;;8.25;4.63;;;27.10;78.30;;;;;;5056397;28;20067;-74
2022/05/12 09:04:09;;;;;;;8.20;3.90;;;27.00;78.10;;;;;;5073037;28;20056;-71
2022/05/12 09:06:55;;;;;;;6.60;4.00;;;27.00;77.40;;;;;;5056268;28;20101;-71
2022/05/12 09:09:51;;;;;;;9.90;4.55;;;27.10;76.10;;;;;;5070718;28;20040;-72
2022/05/12 09:12:40;;;;;;;5.70;3.42;;;27.20;76.00;;;;;;5003663;28;20389;-70
2022/05/12 09:15:26;;;;;;;11.70;4.32;;;27.30;75.40;;;;;;5027806;28;20053;-73
2022/05/12 09:18:00;;;;;;;6.65;3.63;;;27.40;74.40;;;;;;5062813;28;20131;-70
2022/05/12 09:20:31;;;;;;;10.70;4.07;;;27.30;72.90;;;;;;5019939;28;20056;-70
2022/05/12 09:23:00;;;;;;;9.75;3.22;;;27.40;73.40;;;;;;5036251;28;20332;-70
2022/05/12 09:25:40;;;;;;;11.18;4.50;;;27.30;74.00;;;;;;5036118;28;20055;-70
2022/05/12 09:28:47;;;;;;;8.18;4.47;;;27.20;74.10;;;;;;5070569;28;20560;-71
2022/05/12 09:31:17;;;;;;;6.57;3.90;;;27.10;74.50;;;;;;5008578;28;20062;-71
2022/05/12 09:33:49;;;;;;;8.65;3.97;;;27.00;75.50;;;;;;5015953;28;20049;-72
2022/05/12 09:36:19;;;;;;;8.38;3.90;;;27.00;75.50;;;;;;5052335;28;20402;-71
2022/05/12 09:38:48;;;;;;;7.75;3.67;;;27.00;75.80;;;;;;5052832;28;20486;-74
2022/05/12 09:41:21;;;;;;;5.35;3.45;;;27.00;75.10;;;;;;5052701;28;20068;-71
2022/05/12 09:43:54;;;;;;;10.25;4.45;;;27.00;74.90;;;;;;5052488;28;20044;-72
2022/05/12 09:46:29;;;;;;;8.70;4.13;;;27.00;75.10;;;;;;5070478;28;20487;-71
2022/05/12 09:49:20;;;;;;;6.43;3.90;;;27.20;75.60;;;;;;5035793;28;20114;-70
2022/05/12 09:51:47;;;;;;;10.20;5.43;;;27.30;75.50;;;;;;5036148;28;20049;-71
2022/05/12 09:54:18;;;;;;;6.82;3.70;;;27.40;75.30;;;;;;5052156;28;20055;-72
2022/05/12 09:57:24;;;;;;;7.80;4.45;;;27.40;74.50;;;;;;5051231;28;20059;-71
2022/05/12 09:59:56;;;;;;;9.05;4.18;;;27.40;75.70;;;;;;5035298;28;20091;-73
2022/05/12 10:08:29;;;;;;;5.85;4.72;;;27.30;75.60;;;;;;5034378;28;20151;-72
2022/05/12 10:11:04;;;;;;;6.85;4.28;;;27.50;75.60;;;;;;5052925;28;20075;-71
2022/05/12 10:13:53;;;;;;;6.57;4.95;;;27.60;74.00;;;;;;5054543;28;20051;-71
2022/05/12 10:16:28;;;;;;;6.45;4.60;;;27.70;71.90;;;;;;5071549;28;20048;-71
2022/05/12 10:19:01;;;;;;;6.45;3.83;;;27.60;71.60;;;;;;5071330;28;20430;-71
2022/05/12 10:21:42;;;;;;;6.03;3.38;;;27.60;72.70;;;;;;5054569;28;20130;-71
2022/05/12 10:24:20;;;;;;;7.00;4.10;;;27.60;72.50;;;;;;5071438;28;20072;-71
2022/05/12 10:26:59;;;;;;;8.73;4.88;;;27.60;71.30;;;;;;5038391;28;20048;-70
2022/05/12 10:29:41;;;;;;;9.70;6.00;;;27.60;71.60;;;;;;5073131;28;20108;-70
2022/05/12 10:32:21;;;;;;;9.10;5.50;;;27.40;72.40;;;;;;5058638;28;20080;-71
2022/05/12 10:35:00;;;;;;;7.20;5.50;;;27.30;71.60;;;;;;5058588;28;20052;-73
2022/05/12 10:37:34;;;;;;;9.50;5.18;;;27.20;71.70;;;;;;5074520;28;20058;-70
2022/05/12 10:40:15;;;;;;;7.10;4.40;;;27.10;72.40;;;;;;5075330;28;20055;-70
2022/05/12 10:43:08;;;;;;;7.95;3.92;;;27.20;72.60;;;;;;5058640;28;20055;-72
2022/05/12 10:45:58;;;;;;;6.43;3.40;;;27.20;72.50;;;;;;5092832;28;20062;-71
2022/05/12 10:48:52;;;;;;;7.90;3.60;;;27.20;72.40;;;;;;5075483;28;20044;-71
2022/05/12 10:51:30;;;;;;;6.07;3.67;;;27.20;72.30;;;;;;5093285;28;20047;-71
2022/05/12 10:54:44;;;;;;;5.85;3.00;;;27.20;71.70;;;;;;5041392;28;20448;-70
2022/05/12 10:57:36;;;;;;;7.65;4.18;;;27.40;72.30;;;;;;5060559;28;20607;-70
2022/05/12 11:00:18;;;;;;;7.40;3.40;;;27.40;71.30;;;;;;5072233;28;20521;-70
2022/05/12 11:02:52;;;;;;;5.93;2.70;;;27.30;69.90;;;;;;5041441;28;20052;-71
2022/05/12 11:05:51;;;;;;;7.20;3.15;;;27.00;67.40;;;;;;5058608;28;20090;-70
2022/05/12 11:08:51;;;;;;;6.72;2.63;;;27.10;68.90;;;;;;5066517;28;20056;-70
2022/05/12 11:11:28;;;;;;;9.48;3.45;;;27.20;67.50;;;;;;5042252;28;20051;-70
2022/05/12 11:14:11;;;;;;;6.63;3.60;;;27.20;67.70;;;;;;5063869;28;20075;-70
2022/05/12 11:17:05;;;;;;;8.45;2.65;;;27.40;67.60;;;;;;5057504;28;20135;-71
2022/05/12 11:19:33;;;;;;;5.18;3.08;;;27.40;67.00;;;;;;5074772;28;20040;-71
2022/05/12 11:22:38;;;;;;;7.20;3.42;;;27.40;66.90;;;;;;5074984;28;20504;-70
2022/05/12 11:25:23;;;;;;;7.13;3.50;;;27.50;67.20;;;;;;5075079;28;20525;-71
2022/05/12 11:31:21;;;;;;;7.18;3.25;;;27.30;68.50;;;;;;5075074;28;20059;-70
2022/05/12 11:33:54;;;;;;;8.35;2.72;;;27.20;67.80;;;;;;5075077;28;20063;-70
2022/05/12 11:36:38;;;;;;;4.97;2.92;;;27.30;67.90;;;;;;5075095;28;20468;-72
2022/05/12 11:39:24;;;;;;;4.80;3.35;;;27.20;68.70;;;;;;5058482;28;20502;-71
2022/05/12 11:42:18;;;;;;;4.82;2.78;;;27.20;67.10;;;;;;5058474;28;20509;-70
2022/05/12 11:45:04;;;;;;;6.78;2.92;;;27.20;67.20;;;;;;5041408;28;20447;-70
2022/05/12 11:47:50;;;;;;;;;;;27.10;67.80;;;;;;5058736;28;20066;-70
2022/05/12 11:50:27;;;;;;;4.97;3.17;;;27.30;67.20;;;;;;5058114;28;20423;-70
2022/05/12 11:53:00;;;;;;;4.05;2.63;;;27.30;66.20;;;;;;5074460;28;20044;-71
2022/05/12 11:55:52;;;;;;;4.82;2.60;;;27.30;67.30;;;;;;5074425;28;20044;-71
2022/05/12 11:58:32;;;;;;;4.78;2.65;;;27.20;67.20;;;;;;5053927;28;20114;-71
2022/05/12 12:01:04;;;;;;;6.35;2.83;;;27.10;67.50;;;;;;5054717;28;20045;-72
2022/05/12 12:03:45;;;;;;;7.30;2.67;;;27.10;67.10;;;;;;5070392;28;20433;-70
2022/05/12 12:06:45;;;;;;;5.72;3.00;;;27.20;67.50;;;;;;5021471;28;20102;-71
2022/05/12 12:09:36;;;;;;;6.40;2.80;;;27.10;66.80;;;;;;5037713;28;20445;-71
2022/05/12 12:12:07;;;;;;;5.07;2.72;;;27.10;66.40;;;;;;5072347;28;20047;-71
2022/05/12 12:14:59;;;;;;;4.30;2.63;;;27.10;66.60;;;;;;5037489;28;20110;-71
2022/05/12 12:17:40;;;;;;;6.10;2.67;;;27.10;66.40;;;;;;5065991;28;20117;-71
2022/05/12 12:20:31;;;;;;;6.07;2.85;;;26.80;65.30;;;;;;5054460;28;20113;-71
2022/05/12 12:23:23;;;;;;;7.57;2.53;;;26.70;65.70;;;;;;5054040;28;20044;-70
2022/05/12 12:26:17;;;;;;;6.07;3.30;;;26.70;66.60;;;;;;5054174;28;20038;-70
2022/05/12 12:29:09;;;;;;;6.63;2.63;;;26.80;66.50;;;;;;5061126;28;20040;-70
2022/05/12 12:32:21;;;;;;;6.82;2.55;;;26.90;66.80;;;;;;5036822;28;20470;-70
2022/05/12 12:34:54;;;;;;;5.43;2.53;;;27.00;66.90;;;;;;5053806;28;20502;-70
2022/05/12 12:37:47;;;;;;;5.13;2.67;;;27.10;66.30;;;;;;5020162;28;20514;-71
2022/05/12 12:40:33;;;;;;;7.38;3.30;;;27.10;66.90;;;;;;5053307;28;20048;-71
2022/05/12 12:43:16;;;;;;;5.63;2.50;;;27.10;66.20;;;;;;5036414;28;20045;-71
2022/05/12 12:45:50;;;;;;;7.10;2.30;;;27.20;66.70;;;;;;5036852;28;20109;-71
2022/05/12 12:48:30;;;;;;;7.38;3.15;;;27.10;66.90;;;;;;5053241;28;20136;-72
2022/05/12 12:50:57;;;;;;;5.90;2.65;;;27.10;67.30;;;;;;5073233;28;20110;-74
2022/05/12 12:56:52;;;;;;;7.25;2.90;;;27.10;66.00;;;;;;5043699;28;20049;-69
2022/05/12 12:59:21;;;;;;;;;;;27.00;65.30;;;;;;5068235;28;20064;-69
2022/05/12 13:01:55;;;;;;;5.28;2.40;;;27.00;64.90;;;;;;5070898;28;19927;-71
2022/05/12 13:04:24;;;;;;;6.28;2.55;;;27.00;65.10;;;;;;5053140;28;20051;-70
2022/05/12 13:06:55;;;;;;;5.32;2.17;;;26.90;65.00;;;;;;5052797;28;20040;-71
2022/05/12 13:09:33;;;;;;;6.78;2.72;;;27.00;65.00;;;;;;5052869;28;20048;-71
2022/05/12 13:12:13;;;;;;;8.23;2.50;;;27.10;64.70;;;;;;5036185;28;20533;-73
2022/05/12 13:14:43;;;;;;;5.15;2.45;;;27.10;64.90;;;;;;5036700;28;20044;-70
2022/05/12 13:17:18;;;;;;;4.35;2.20;;;27.00;65.00;;;;;;5070414;28;20514;-71
2022/05/12 13:19:46;;;;;;;3.83;2.40;;;27.10;64.80;;;;;;5019680;28;20052;-71
2022/05/12 13:22:24;;;;;;;4.53;2.28;;;27.00;64.00;;;;;;5052588;28;20040;-72
2022/05/12 13:24:53;;;;;;;4.80;2.25;;;26.90;63.40;;;;;;5052432;28;20047;-71
2022/05/12 13:27:24;;;;;;;5.60;2.88;;;26.90;63.50;;;;;;5052441;28;20040;-71
2022/05/12 13:29:52;;;;;;;3.75;2.08;;;26.80;63.80;;;;;;5052682;28;20600;-71
2022/05/12 13:32:49;;;;;;;5.82;2.30;;;26.90;63.60;;;;;;5019434;28;20063;-71
2022/05/12 13:35:26;;;;;;;4.00;2.08;;;26.80;63.60;;;;;;5051737;28;20506;-72
2022/05/12 13:38:07;;;;;;;7.45;2.00;;;26.80;62.80;;;;;;5035829;28;20514;-71